createdAt,value
2019-04-29T00:02:13.430Z,17.37
2019-04-29T00:04:44.227Z,15.63
2019-04-29T00:07:15.094Z,12.33
2019-04-29T00:09:47.028Z,17.83
2019-04-29T00:12:18.383Z,14.43
2019-04-29T00:14:59.101Z,12.13
2019-04-29T00:17:52.313Z,13.33
2019-04-29T00:20:42.026Z,11.03
2019-04-29T00:23:13.251Z,19.23
2019-04-29T00:25:44.251Z,14.40
2019-04-29T00:28:17.014Z,13.13
2019-04-29T00:30:47.614Z,13.60
2019-04-29T00:33:18.534Z,13.43
2019-04-29T00:35:49.267Z,16.47
2019-04-29T00:38:39.224Z,11.67
2019-04-29T00:41:29.068Z,15.87
2019-04-29T00:44:05.526Z,14.83
2019-04-29T00:46:36.128Z,16.97
2019-04-29T00:49:06.791Z,15.70
2019-04-29T00:54:31.582Z,17.47
2019-04-29T00:57:02.157Z,15.50
2019-04-29T00:59:32.666Z,13.90
2019-04-29T01:02:03.120Z,18.13
2019-04-29T01:04:33.717Z,14.70
2019-04-29T01:07:04.632Z,18.60
2019-04-29T01:09:35.405Z,15.10
2019-04-29T01:12:06.793Z,25.67
2019-04-29T01:14:37.364Z,16.03
2019-04-29T01:17:07.927Z,14.40
2019-04-29T01:19:38.402Z,15.60
2019-04-29T01:22:08.944Z,19.10
2019-04-29T01:24:39.502Z,24.60
2019-04-29T01:27:23.626Z,14.80
2019-04-29T01:29:54.221Z,17.27
2019-04-29T01:32:24.699Z,17.07
2019-04-29T01:34:56.476Z,17.30
2019-04-29T01:37:41.393Z,22.30
2019-04-29T01:40:21.033Z,14.83
2019-04-29T01:42:51.619Z,11.03
2019-04-29T01:45:22.142Z,17.27
2019-04-29T01:47:52.732Z,12.93
2019-04-29T01:50:23.266Z,10.73
2019-04-29T01:52:53.768Z,13.13
2019-04-29T01:55:24.324Z,14.03
2019-04-29T01:57:54.890Z,19.30
2019-04-29T02:00:25.376Z,14.40
2019-04-29T02:02:55.862Z,15.17
2019-04-29T02:05:26.430Z,19.47
2019-04-29T02:07:56.999Z,18.93
2019-04-29T02:10:34.778Z,11.47
2019-04-29T02:13:05.548Z,15.60
2019-04-29T02:15:36.128Z,17.77
2019-04-29T02:18:06.648Z,12.17
2019-04-29T02:20:37.209Z,10.13
2019-04-29T02:23:26.575Z,13.57
2019-04-29T02:25:57.155Z,18.37
2019-04-29T02:28:27.685Z,13.77
2019-04-29T02:31:00.038Z,15.23
2019-04-29T02:33:30.530Z,16.37
2019-04-29T02:36:01.035Z,16.33
2019-04-29T02:38:38.315Z,16.80
2019-04-29T02:41:24.584Z,15.43
2019-04-29T02:43:56.698Z,18.53
2019-04-29T02:46:27.237Z,18.20
2019-04-29T02:48:57.793Z,15.23
2019-04-29T02:51:46.677Z,13.77
2019-04-29T02:54:17.230Z,18.37
2019-04-29T02:56:51.902Z,12.33
2019-04-29T02:59:27.987Z,11.97
2019-04-29T03:02:32.526Z,9.80
2019-04-29T03:05:15.225Z,13.20
2019-04-29T03:07:45.864Z,20.23
2019-04-29T03:10:16.689Z,15.40
2019-04-29T03:12:47.263Z,15.77
2019-04-29T03:15:33.296Z,18.23
2019-04-29T03:18:04.131Z,11.80
2019-04-29T03:20:53.546Z,12.07
2019-04-29T03:23:24.491Z,16.53
2019-04-29T03:25:54.995Z,16.77
2019-04-29T03:28:25.581Z,15.20
2019-04-29T03:30:56.078Z,13.93
2019-04-29T03:33:26.565Z,16.73
2019-04-29T03:35:57.203Z,13.07
2019-04-29T03:38:27.711Z,14.13
2019-04-29T03:40:58.279Z,15.13
2019-04-29T03:43:28.821Z,12.40
2019-04-29T03:45:59.323Z,18.23
2019-04-29T03:48:29.810Z,14.87
2019-04-29T03:51:00.376Z,12.43
2019-04-29T03:53:30.926Z,15.23
2019-04-29T03:56:01.394Z,17.43
2019-04-29T03:58:31.947Z,14.27
2019-04-29T04:01:10.547Z,11.47
2019-04-29T04:03:47.811Z,11.60
2019-04-29T04:06:40.030Z,21.70
2019-04-29T04:09:29.473Z,17.13
2019-04-29T04:12:00.043Z,12.10
2019-04-29T04:14:30.577Z,11.90
2019-04-29T04:17:22.807Z,13.80
2019-04-29T04:19:53.588Z,9.90
2019-04-29T04:22:24.111Z,15.07
2019-04-29T04:24:54.642Z,12.40
2019-04-29T04:27:25.183Z,16.93
2019-04-29T04:29:55.725Z,15.10
2019-04-29T04:32:26.301Z,14.93
2019-04-29T04:34:56.830Z,11.03
2019-04-29T04:37:27.422Z,13.07
2019-04-29T04:39:57.981Z,12.53
2019-04-29T04:42:29.998Z,11.93
2019-04-29T04:45:00.629Z,15.63
2019-04-29T04:47:31.210Z,13.70
2019-04-29T04:50:01.660Z,13.67
2019-04-29T04:52:33.093Z,15.87
2019-04-29T04:55:03.656Z,16.20
2019-04-29T04:57:34.130Z,22.90
2019-04-29T05:00:07.493Z,13.37
2019-04-29T05:02:38.074Z,14.10
2019-04-29T05:05:08.832Z,16.70
2019-04-29T05:07:39.370Z,14.40
2019-04-29T05:10:09.962Z,22.60
2019-04-29T05:15:30.001Z,16.57
2019-04-29T05:18:00.547Z,18.73
2019-04-29T05:20:31.106Z,15.53
2019-04-29T05:23:01.760Z,23.27
2019-04-29T05:25:33.744Z,18.90
2019-04-29T05:30:53.492Z,17.83
2019-04-29T05:33:24.192Z,15.63
2019-04-29T05:36:07.772Z,19.17
2019-04-29T05:39:00.281Z,15.40
2019-04-29T05:41:34.866Z,12.30
2019-04-29T05:44:19.021Z,15.33
2019-04-29T05:46:55.359Z,16.50
2019-04-29T05:49:37.483Z,16.47
2019-04-29T05:52:34.826Z,16.03
2019-04-29T05:55:04.922Z,16.27
2019-04-29T05:57:35.491Z,21.20
2019-04-29T06:00:06.355Z,20.63
2019-04-29T06:02:38.821Z,21.70
2019-04-29T06:05:09.230Z,17.63
2019-04-29T06:07:39.817Z,14.87
2019-04-29T06:10:10.792Z,16.47
2019-04-29T06:12:44.376Z,18.53
2019-04-29T06:15:13.465Z,18.57
2019-04-29T06:20:33.022Z,16.93
2019-04-29T06:23:03.577Z,14.30
2019-04-29T06:25:34.155Z,13.80
2019-04-29T06:28:04.698Z,18.83
2019-04-29T06:30:38.734Z,16.53
2019-04-29T06:33:07.408Z,15.47
2019-04-29T06:35:37.986Z,17.17
2019-04-29T06:38:08.522Z,17.70
2019-04-29T06:40:39.431Z,15.90
2019-04-29T06:43:09.910Z,16.33
2019-04-29T06:45:40.425Z,16.77
2019-04-29T06:48:11.948Z,17.23
2019-04-29T06:50:42.559Z,19.80
2019-04-29T06:53:16.513Z,14.67
2019-04-29T06:55:45.232Z,17.13
2019-04-29T06:58:15.782Z,20.23
2019-04-29T07:00:46.285Z,20.47
2019-04-29T07:03:20.957Z,18.70
2019-04-29T07:05:51.486Z,20.73
2019-04-29T07:08:21.199Z,13.03
2019-04-29T07:10:55.976Z,15.67
2019-04-29T07:13:24.626Z,19.17
2019-04-29T07:15:55.255Z,13.30
2019-04-29T07:18:25.877Z,17.20
2019-04-29T07:20:56.407Z,13.50
2019-04-29T07:23:26.979Z,18.37
2019-04-29T07:25:57.558Z,15.53
2019-04-29T07:28:28.198Z,13.47
2019-04-29T07:31:01.355Z,14.87
2019-04-29T07:33:30.867Z,19.80
2019-04-29T07:36:10.878Z,17.67
2019-04-29T07:38:41.301Z,18.20
2019-04-29T07:41:05.885Z,11.70
2019-04-29T07:43:38.536Z,17.63
2019-04-29T07:46:55.743Z,18.03
2019-04-29T07:49:12.670Z,18.60
2019-04-29T07:51:43.856Z,16.37
2019-04-29T07:54:16.127Z,18.03
2019-04-29T07:56:46.537Z,14.27
2019-04-29T07:59:17.462Z,16.10
2019-04-29T08:01:47.994Z,14.50
2019-04-29T08:04:18.457Z,13.33
2019-04-29T08:06:49.035Z,12.57
2019-04-29T08:09:19.679Z,15.87
2019-04-29T08:11:50.294Z,15.10
2019-04-29T08:14:22.846Z,14.60
2019-04-29T08:16:53.367Z,9.40
2019-04-29T08:19:24.764Z,10.43
2019-04-29T08:21:56.139Z,10.40
2019-04-29T08:24:26.715Z,12.73
2019-04-29T08:26:57.310Z,12.10
2019-04-29T08:29:30.842Z,12.43
2019-04-29T08:32:02.490Z,10.17
2019-04-29T08:34:32.359Z,9.73
2019-04-29T08:37:02.958Z,10.60
2019-04-29T08:39:33.758Z,9.57
2019-04-29T08:42:09.164Z,9.93
2019-04-29T08:44:54.719Z,8.80
2019-04-29T08:47:31.510Z,9.00
2019-04-29T08:49:59.313Z,9.57
2019-04-29T08:52:29.863Z,12.93
2019-04-29T08:55:00.443Z,11.17
2019-04-29T08:57:31.707Z,11.27
2019-04-29T09:00:03.297Z,10.23
2019-04-29T09:02:35.611Z,9.40
2019-04-29T09:05:11.437Z,13.00
2019-04-29T09:07:39.218Z,10.90
2019-04-29T09:10:10.304Z,10.73
2019-04-29T09:12:40.907Z,9.57
2019-04-29T09:15:12.096Z,6.23
2019-04-29T09:17:43.624Z,8.20
2019-04-29T09:20:14.908Z,10.40
2019-04-29T09:22:50.938Z,10.97
2019-04-29T09:25:38.829Z,9.07
2019-04-29T09:28:15.085Z,9.00
2019-04-29T09:30:43.789Z,7.17
2019-04-29T09:33:14.390Z,8.80
2019-04-29T09:35:44.945Z,6.27
2019-04-29T09:38:15.445Z,8.30
2019-04-29T09:41:10.862Z,8.90
2019-04-29T09:44:03.887Z,10.47
2019-04-29T09:46:34.580Z,9.20
2019-04-29T09:49:05.063Z,7.93
2019-04-29T09:51:35.642Z,9.27
2019-04-29T09:54:09.531Z,8.03
2019-04-29T09:56:38.478Z,8.37
2019-04-29T09:59:29.395Z,8.60
2019-04-29T10:02:34.009Z,9.20
2019-04-29T10:05:26.970Z,9.10
2019-04-29T10:07:57.609Z,9.70
2019-04-29T10:10:28.383Z,6.10
2019-04-29T10:12:58.934Z,7.20
2019-04-29T10:15:43.071Z,8.20
2019-04-29T10:18:25.066Z,8.87
2019-04-29T10:20:58.935Z,8.60
2019-04-29T10:23:29.507Z,9.40
2019-04-29T10:26:00.564Z,12.00
2019-04-29T10:28:31.426Z,10.70
2019-04-29T10:31:01.970Z,7.80
2019-04-29T10:33:32.732Z,9.27
2019-04-29T10:36:03.265Z,10.90
2019-04-29T10:38:33.839Z,8.43
2019-04-29T10:41:26.160Z,6.87
2019-04-29T10:44:14.040Z,9.70
2019-04-29T10:49:34.829Z,13.47
2019-04-29T10:52:04.666Z,10.27
2019-04-29T10:54:35.555Z,11.03
2019-04-29T10:57:06.349Z,9.40
2019-04-29T10:59:40.680Z,13.87
2019-04-29T11:02:31.374Z,8.93
2019-04-29T11:05:33.071Z,10.50
2019-04-29T11:08:08.896Z,9.53
2019-04-29T11:10:39.467Z,9.10
2019-04-29T11:13:10.047Z,8.90
2019-04-29T11:15:40.659Z,9.30
2019-04-29T11:18:11.171Z,11.40
2019-04-29T11:20:44.459Z,14.30
2019-04-29T11:23:29.289Z,11.80
2019-04-29T11:26:14.957Z,13.57
2019-04-29T11:28:47.003Z,9.87
2019-04-29T11:31:19.327Z,9.63
2019-04-29T11:36:43.968Z,10.40
2019-04-29T11:39:15.588Z,10.13
2019-04-29T11:41:49.902Z,12.17
2019-04-29T11:44:21.946Z,10.87
2019-04-29T11:46:51.633Z,8.67
2019-04-29T11:49:28.366Z,8.53
2019-04-29T11:54:34.310Z,10.40
2019-04-29T11:57:06.436Z,10.50
2019-04-29T11:59:50.201Z,11.27
2019-04-29T12:02:51.846Z,9.83
2019-04-29T12:05:44.913Z,9.90
2019-04-29T12:08:16.991Z,9.77
2019-04-29T12:10:48.580Z,12.57
2019-04-29T12:13:28.385Z,8.97
2019-04-29T12:16:05.883Z,13.90
2019-04-29T12:18:40.206Z,10.40
2019-04-29T12:21:28.954Z,9.10
2019-04-29T12:24:01.096Z,10.13
2019-04-29T12:26:35.663Z,8.20
2019-04-29T12:29:05.335Z,7.43
2019-04-29T12:32:04.176Z,9.90
2019-04-29T12:34:56.625Z,7.37
2019-04-29T12:38:05.928Z,6.33
2019-04-29T12:41:20.566Z,6.20
2019-04-29T12:43:59.059Z,6.90
2019-04-29T12:46:47.975Z,8.40
2019-04-29T12:49:18.623Z,8.67
2019-04-29T12:51:49.178Z,8.50
2019-04-29T12:54:19.654Z,9.10
2019-04-29T12:56:50.150Z,7.50
2019-04-29T12:59:20.765Z,7.53
2019-04-29T13:02:14.172Z,7.27
2019-04-29T13:05:09.776Z,7.10
2019-04-29T13:08:05.219Z,6.77
2019-04-29T13:10:49.950Z,8.53
2019-04-29T13:13:22.021Z,7.30
2019-04-29T13:16:08.320Z,7.13
2019-04-29T13:19:10.730Z,7.83
2019-04-29T13:21:28.812Z,7.63
2019-04-29T13:24:12.467Z,8.17
2019-04-29T13:26:33.179Z,8.43
2019-04-29T13:29:03.907Z,5.67
2019-04-29T13:31:38.717Z,7.50
2019-04-29T13:34:22.879Z,7.67
2019-04-29T13:36:40.418Z,7.90
2019-04-29T13:39:11.018Z,7.97
2019-04-29T13:41:56.138Z,5.23
2019-04-29T13:44:14.021Z,6.87
2019-04-29T13:47:12.363Z,9.13
2019-04-29T13:50:16.653Z,11.77
2019-04-29T13:52:29.611Z,7.33
2019-04-29T13:55:16.521Z,6.60
2019-04-29T13:57:32.568Z,7.43
2019-04-29T14:00:24.681Z,7.73
2019-04-29T14:02:59.617Z,5.43
2019-04-29T14:05:32.507Z,7.23
2019-04-29T14:08:04.008Z,6.70
2019-04-29T14:10:34.605Z,9.00
2019-04-29T14:13:13.076Z,8.30
2019-04-29T14:15:40.520Z,6.90
2019-04-29T14:18:11.727Z,9.30
2019-04-29T14:20:42.701Z,6.27
2019-04-29T14:23:13.281Z,7.10
2019-04-29T14:25:43.769Z,5.50
2019-04-29T14:28:14.288Z,8.23
2019-04-29T14:30:47.712Z,6.40
2019-04-29T14:33:19.345Z,6.40
2019-04-29T14:36:10.084Z,8.70
2019-04-29T14:38:42.558Z,9.20
2019-04-29T14:41:14.371Z,8.53
2019-04-29T14:43:58.003Z,9.20
2019-04-29T14:46:50.531Z,8.37
2019-04-29T14:49:24.221Z,6.53
2019-04-29T14:51:55.650Z,5.20
2019-04-29T14:54:26.175Z,6.40
2019-04-29T14:56:56.679Z,6.00
2019-04-29T14:59:27.415Z,5.03
2019-04-29T15:02:02.403Z,4.90
2019-04-29T15:04:36.112Z,8.40
2019-04-29T15:07:06.930Z,6.00
2019-04-29T15:09:46.692Z,6.13
2019-04-29T15:15:24.816Z,6.03
2019-04-29T15:17:59.735Z,6.47
2019-04-29T15:20:56.498Z,6.57
2019-04-29T15:23:28.716Z,8.73
2019-04-29T15:25:59.325Z,6.97
2019-04-29T15:28:29.873Z,7.83
2019-04-29T15:31:00.403Z,6.83
2019-04-29T15:33:34.681Z,4.43
2019-04-29T15:36:03.169Z,7.13
2019-04-29T15:38:33.655Z,7.70
2019-04-29T15:41:05.781Z,7.23
2019-04-29T15:43:47.032Z,6.93
2019-04-29T15:46:11.294Z,7.13
2019-04-29T15:48:40.782Z,5.83
2019-04-29T15:51:13.862Z,8.80
2019-04-29T15:53:43.511Z,5.67
2019-04-29T15:56:28.478Z,7.40
2019-04-29T15:58:46.238Z,5.57
2019-04-29T16:01:18.208Z,8.27
2019-04-29T16:03:50.005Z,7.53
2019-04-29T16:06:55.364Z,8.15
2019-04-29T16:09:50.590Z,7.83
2019-04-29T16:14:49.078Z,8.90
2019-04-29T16:17:20.464Z,6.47
2019-04-29T16:22:45.782Z,4.83
2019-04-29T16:25:16.358Z,4.87
2019-04-29T16:27:53.053Z,5.85
2019-04-29T16:30:19.289Z,7.85
2019-04-29T16:32:49.894Z,8.23
2019-04-29T16:35:23.764Z,7.15
2019-04-29T16:37:52.619Z,8.05
2019-04-29T16:40:24.366Z,8.80
2019-04-29T16:43:12.170Z,9.03
2019-04-29T16:45:51.635Z,6.78
2019-04-29T16:48:20.977Z,8.55
2019-04-29T16:50:51.608Z,8.13
2019-04-29T16:53:22.198Z,6.67
2019-04-29T16:55:52.713Z,9.30
2019-04-29T16:58:24.156Z,9.98
2019-04-29T17:00:55.004Z,7.35
2019-04-29T17:03:25.561Z,6.60
2019-04-29T17:05:56.088Z,5.90
2019-04-29T17:08:33.936Z,7.17
2019-04-29T17:11:19.376Z,7.12
2019-04-29T17:13:49.405Z,7.55
2019-04-29T17:16:22.547Z,4.72
2019-04-29T17:18:53.155Z,5.80
2019-04-29T17:21:23.732Z,6.62
2019-04-29T17:23:54.316Z,10.18
2019-04-29T17:26:31.332Z,9.63
2019-04-29T17:29:37.775Z,5.55
2019-04-29T17:32:14.541Z,7.60
2019-04-29T17:34:59.055Z,3.98
2019-04-29T17:35:19.279Z,11.33
2019-04-29T17:37:18.316Z,4.55
2019-04-29T17:39:48.898Z,5.45
2019-04-29T17:42:19.817Z,6.73
2019-04-29T17:44:50.248Z,6.67
2019-04-29T17:47:34.238Z,10.17
2019-04-29T17:50:30.674Z,5.50
2019-04-29T17:52:56.166Z,12.73
2019-04-29T17:55:50.209Z,14.20
2019-04-29T17:58:25.939Z,10.13
2019-04-29T18:01:25.491Z,10.37
2019-04-29T18:04:25.888Z,12.93
2019-04-29T18:07:15.040Z,17.57
2019-04-29T18:09:59.042Z,13.13
2019-04-29T18:12:29.591Z,12.97
2019-04-29T18:15:00.202Z,16.20
2019-04-29T18:21:03.170Z,20.37
2019-04-29T18:23:44.673Z,20.40
2019-04-29T18:26:20.731Z,14.57
2019-04-29T18:28:51.290Z,17.47
2019-04-29T18:31:21.881Z,15.57
2019-04-29T18:33:52.479Z,12.43
2019-04-29T18:36:26.230Z,17.63
2019-04-29T18:38:55.634Z,12.87
2019-04-29T18:41:28.739Z,12.90
2019-04-29T18:44:02.881Z,12.57
2019-04-29T18:46:30.856Z,17.30
2019-04-29T18:51:50.203Z,11.50
2019-04-29T18:54:20.784Z,18.93
2019-04-29T18:56:51.419Z,16.00
2019-04-29T18:59:30.496Z,18.73
2019-04-29T19:01:54.882Z,12.47
2019-04-29T19:04:35.431Z,16.20
2019-04-29T19:07:06.688Z,18.90
2019-04-29T19:09:38.604Z,13.43
2019-04-29T19:12:09.153Z,14.77
2019-04-29T19:14:39.741Z,13.10
2019-04-29T19:17:10.347Z,12.30
2019-04-29T19:19:40.941Z,13.73
2019-04-29T19:22:11.602Z,11.70
2019-04-29T19:24:44.257Z,15.70
2019-04-29T19:27:15.052Z,15.33
2019-04-29T19:29:45.858Z,13.20
2019-04-29T19:32:18.881Z,11.30
2019-04-29T19:34:50.026Z,12.73
2019-04-29T19:37:20.935Z,14.13
2019-04-29T19:39:52.552Z,13.33
2019-04-29T19:42:31.034Z,14.97
2019-04-29T19:44:55.906Z,10.90
2019-04-29T19:47:28.084Z,15.00
2019-04-29T19:49:58.646Z,14.67
2019-04-29T19:52:31.714Z,12.17
2019-04-29T19:55:01.739Z,14.53
2019-04-29T19:57:36.204Z,11.23
2019-04-29T20:00:07.579Z,14.73
2019-04-29T20:02:45.421Z,12.33
2019-04-29T20:05:17.064Z,10.27
2019-04-29T20:07:50.582Z,11.67
2019-04-29T20:10:20.978Z,11.17
2019-04-29T20:12:53.565Z,13.00
2019-04-29T20:15:25.818Z,11.63
2019-04-29T20:18:14.532Z,12.50
2019-04-29T20:20:51.915Z,11.97
2019-04-29T20:23:26.249Z,20.20
2019-04-29T20:26:05.550Z,13.83
2019-04-29T20:28:29.822Z,15.10
2019-04-29T20:33:49.346Z,18.23
2019-04-29T20:36:37.337Z,17.87
2019-04-29T20:38:53.380Z,17.57
2019-04-29T20:41:39.768Z,19.03
2019-04-29T20:44:00.869Z,19.37
2019-04-29T20:46:39.866Z,14.20
2019-04-29T20:49:01.882Z,16.97
2019-04-29T20:54:25.527Z,14.27
2019-04-29T20:57:02.852Z,14.47
2019-04-29T20:59:28.634Z,14.43
2019-04-29T21:02:12.233Z,17.30
2019-04-29T21:04:39.297Z,13.10
2019-04-29T21:07:07.133Z,13.90
2019-04-29T21:09:37.889Z,15.90
2019-04-29T21:12:29.864Z,20.43
2019-04-29T21:15:01.481Z,17.10
2019-04-29T21:17:32.267Z,18.90
2019-04-29T21:20:02.873Z,20.70
2019-04-29T21:22:35.675Z,14.93
2019-04-29T21:25:06.549Z,12.30
2019-04-29T21:27:37.168Z,15.73
2019-04-29T21:30:08.114Z,18.23
2019-04-29T21:32:39.042Z,12.20
2019-04-29T21:35:18.854Z,14.43
2019-04-29T21:38:23.467Z,17.00
2019-04-29T21:40:59.540Z,14.33
2019-04-29T21:43:30.623Z,14.50
2019-04-29T21:46:01.222Z,12.60
2019-04-29T21:48:34.181Z,14.00
2019-04-29T21:51:06.785Z,12.23
2019-04-29T21:53:40.157Z,16.80
2019-04-29T21:56:09.504Z,10.73
2019-04-29T21:58:40.274Z,15.37
2019-04-29T22:01:11.271Z,14.63
2019-04-29T22:03:42.162Z,16.17
2019-04-29T22:06:12.881Z,15.40
2019-04-29T22:08:45.111Z,15.50
2019-04-29T22:11:17.445Z,13.53
2019-04-29T22:13:49.066Z,14.53
2019-04-29T22:16:19.647Z,16.53
2019-04-29T22:18:52.098Z,18.13
2019-04-29T22:21:23.496Z,17.37
2019-04-29T22:23:55.258Z,16.17
2019-04-29T22:26:26.884Z,15.47
2019-04-29T22:29:01.746Z,12.57
2019-04-29T22:31:33.696Z,16.70
2019-04-29T22:34:02.090Z,13.80
2019-04-29T22:36:32.636Z,15.13
2019-04-29T22:39:03.203Z,13.93
2019-04-29T22:41:52.712Z,12.60
2019-04-29T22:44:23.789Z,18.33
2019-04-29T22:46:55.525Z,13.40
2019-04-29T22:49:29.142Z,13.93
2019-04-29T22:51:58.201Z,14.60
2019-04-29T22:54:29.656Z,13.83
2019-04-29T22:57:00.196Z,13.90
2019-04-29T22:59:30.720Z,15.23
2019-04-29T23:02:01.306Z,13.17
2019-04-29T23:04:31.879Z,15.47
2019-04-29T23:07:02.449Z,18.30
2019-04-29T23:09:33.004Z,17.13
2019-04-29T23:12:05.341Z,18.57
2019-04-29T23:14:36.092Z,17.67
2019-04-29T23:17:12.150Z,14.97
2019-04-29T23:19:38.882Z,18.90
2019-04-29T23:22:34.395Z,15.37
2019-04-29T23:25:12.805Z,14.47
2019-04-29T23:27:43.306Z,14.87
2019-04-29T23:30:18.162Z,14.33
2019-04-29T23:32:48.248Z,15.33
2019-04-29T23:35:18.748Z,16.53
2019-04-29T23:37:49.250Z,15.47
2019-04-29T23:40:19.740Z,12.40
2019-04-29T23:42:50.270Z,14.03
2019-04-29T23:45:22.266Z,13.33
2019-04-29T23:47:52.795Z,11.27
2019-04-29T23:50:23.344Z,14.03
2019-04-29T23:52:55.602Z,14.67
2019-04-29T23:55:29.187Z,12.50
2019-04-29T23:58:13.456Z,12.00
